Time;durP1;ratioP1;P1;durP2;ratioP2;P2;SDS_P1;SDS_P2;PMS_P1;PMS_P2;Temp;Humidity;BMP_temperature;BMP_pressure;BME280_temperature;BME280_humidity;BME280_pressure;Samples;Min_cycle;Max_cycle;Signal;HPM_P1;HPM_P2
2023/05/14 00:00:12;;;;;;;14.67;12.70;;;13.90;99.90;;;;;;5103210;28;20472;-82
2023/05/14 00:02:39;;;;;;;14.30;11.97;;;13.80;99.90;;;;;;5102747;28;20527;-84
2023/05/14 00:05:09;;;;;;;14.27;11.93;;;13.70;99.90;;;;;;5099713;28;20531;-83
2023/05/14 00:07:35;;;;;;;13.50;12.20;;;13.70;99.90;;;;;;5098698;28;20474;-83
2023/05/14 00:10:02;;;;;;;12.83;11.50;;;13.70;99.90;;;;;;5098463;28;20444;-83
2023/05/14 00:12:29;;;;;;;13.50;12.10;;;13.70;99.90;;;;;;5108020;28;20508;-82
2023/05/14 00:14:56;;;;;;;13.17;11.73;;;13.70;99.90;;;;;;5108348;28;20946;-83
2023/05/14 00:17:23;;;;;;;14.10;11.23;;;13.30;1.00;;;;;;5104815;28;20468;-82
2023/05/14 00:19:50;;;;;;;12.83;11.60;;;13.70;99.90;;;;;;5103235;28;20460;-82
2023/05/14 00:22:18;;;;;;;13.53;12.23;;;13.70;99.90;;;;;;5102460;28;20444;-84
2023/05/14 00:24:46;;;;;;;15.37;12.30;;;13.60;99.90;;;;;;5102680;28;20443;-82
2023/05/14 00:27:13;;;;;;;15.33;12.43;;;13.60;1.00;;;;;;5109209;28;20417;-81
2023/05/14 00:29:40;;;;;;;13.17;11.97;;;13.60;99.90;;;;;;5117763;28;20478;-80
2023/05/14 00:32:07;;;;;;;13.00;11.20;;;13.60;99.90;;;;;;5110542;28;20460;-83
2023/05/14 00:34:35;;;;;;;12.83;11.23;;;13.50;99.90;;;;;;5103272;28;20529;-82
2023/05/14 00:37:02;;;;;;;12.30;11.00;;;13.50;99.90;;;;;;5102969;28;20483;-84
2023/05/14 00:39:30;;;;;;;13.43;12.03;;;13.50;99.90;;;;;;5103996;28;20890;-84
2023/05/14 00:41:57;;;;;;;12.90;11.67;;;13.50;99.90;;;;;;5102438;28;20448;-83
2023/05/14 00:44:24;;;;;;;15.20;12.13;;;13.60;99.90;;;;;;5102417;28;20440;-82
2023/05/14 00:46:50;;;;;;;12.20;10.90;;;13.60;99.90;;;;;;5103170;28;20444;-82
2023/05/14 00:49:18;;;;;;;11.57;10.40;;;13.70;99.90;;;;;;5104853;28;20470;-82
2023/05/14 00:51:45;;;;;;;13.13;11.93;;;13.70;99.90;;;;;;5111281;28;20395;-82
2023/05/14 00:54:13;;;;;;;11.87;10.77;;;13.60;1.00;;;;;;5115216;28;20464;-81
2023/05/14 00:56:42;;;;;;;10.87;9.77;;;13.50;99.90;;;;;;5115183;28;20496;-83
2023/05/14 00:59:09;;;;;;;14.37;10.90;;;13.50;99.90;;;;;;5116445;28;20467;-82
2023/05/14 01:01:36;;;;;;;10.90;9.80;;;13.50;99.90;;;;;;5117109;28;20459;-83
2023/05/14 01:04:04;;;;;;;10.30;9.30;;;13.60;99.90;;;;;;5108312;28;20451;-83
2023/05/14 01:06:51;;;;;;;10.33;9.33;;;13.60;99.90;;;;;;5103741;28;20876;-83
2023/05/14 01:09:22;;;;;;;14.97;8.73;;;13.60;99.90;;;;;;5102722;28;20471;-84
2023/05/14 01:11:58;;;;;;;12.57;10.00;;;13.50;99.90;;;;;;5104385;28;20881;-83
2023/05/14 01:14:33;;;;;;;12.23;10.93;;;13.50;99.90;;;;;;5105318;28;20432;-82
2023/05/14 01:17:02;;;;;;;15.90;9.70;;;13.60;99.90;;;;;;5104498;28;20466;-82
2023/05/14 01:19:37;;;;;;;13.43;12.13;;;13.60;99.90;;;;;;5110903;28;20494;-82
2023/05/14 01:22:05;;;;;;;10.73;9.60;;;13.50;99.90;;;;;;5101581;28;20436;-82
2023/05/14 01:24:32;;;;;;;12.00;10.77;;;13.50;99.90;;;;;;5101125;28;20452;-82
2023/05/14 01:27:09;;;;;;;9.87;8.83;;;13.50;99.90;;;;;;5101084;28;20626;-82
2023/05/14 01:29:38;;;;;;;9.30;8.50;;;13.40;99.90;;;;;;5101202;28;20483;-82
2023/05/14 01:32:08;;;;;;;12.83;8.60;;;13.40;99.90;;;;;;5100815;28;20531;-83
2023/05/14 01:34:36;;;;;;;9.57;8.40;;;13.30;99.90;;;;;;5100752;28;20609;-83
2023/05/14 01:37:06;;;;;;;9.90;9.10;;;13.30;99.90;;;;;;5099857;28;20495;-83
2023/05/14 01:39:36;;;;;;;9.00;7.83;;;13.30;99.90;;;;;;5100464;28;20470;-83
2023/05/14 01:42:04;;;;;;;12.00;9.03;;;13.20;99.90;;;;;;5100704;28;20451;-82
2023/05/14 01:44:31;;;;;;;13.07;9.40;;;13.20;99.90;;;;;;5110056;28;20505;-81
2023/05/14 01:46:58;;;;;;;9.93;9.13;;;13.20;99.90;;;;;;5114941;28;20436;-81
2023/05/14 01:49:25;;;;;;;11.20;10.10;;;13.60;1.00;;;;;;5115241;28;20469;-81
2023/05/14 01:51:52;;;;;;;8.63;7.80;;;13.20;99.90;;;;;;5113492;28;20447;-82
2023/05/14 01:54:20;;;;;;;11.80;8.77;;;13.30;99.90;;;;;;5105516;28;21030;-83
2023/05/14 01:56:46;;;;;;;9.77;8.97;;;13.30;99.90;;;;;;5100898;28;20484;-83
2023/05/14 01:59:13;;;;;;;9.27;8.30;;;13.30;99.90;;;;;;5100196;28;21077;-82
2023/05/14 02:01:40;;;;;;;8.90;8.07;;;13.40;99.90;;;;;;5103612;28;20452;-81
2023/05/14 02:04:07;;;;;;;9.07;8.33;;;13.50;99.90;;;;;;5117595;28;20516;-82
2023/05/14 02:06:34;;;;;;;8.90;8.00;;;13.50;99.90;;;;;;5115121;28;20436;-82
2023/05/14 02:09:00;;;;;;;8.50;7.77;;;13.50;99.90;;;;;;5107468;28;20549;-82
2023/05/14 02:11:28;;;;;;;9.50;8.70;;;13.50;99.90;;;;;;5106349;28;20475;-83
2023/05/14 02:13:55;;;;;;;9.30;8.43;;;13.50;99.90;;;;;;5105334;28;20448;-82
2023/05/14 02:16:22;;;;;;;8.50;7.80;;;13.50;99.90;;;;;;5103445;28;20487;-83
2023/05/14 02:18:49;;;;;;;8.87;7.97;;;13.30;99.90;;;;;;5099687;28;20472;-83
2023/05/14 02:21:16;;;;;;;8.80;8.00;;;13.50;99.90;;;;;;5102468;28;20456;-83
2023/05/14 02:23:43;;;;;;;8.90;8.10;;;13.50;99.90;;;;;;5106656;28;20515;-82
2023/05/14 02:26:10;;;;;;;11.57;8.10;;;13.60;99.90;;;;;;5101382;28;20436;-82
2023/05/14 02:28:38;;;;;;;8.30;7.60;;;13.60;99.90;;;;;;5107328;28;20566;-82
2023/05/14 02:31:05;;;;;;;8.83;7.93;;;13.70;99.90;;;;;;5111958;28;20818;-81
2023/05/14 02:33:32;;;;;;;8.90;8.00;;;13.60;1.00;;;;;;5110385;28;20538;-81
2023/05/14 02:35:58;;;;;;;8.60;7.80;;;13.80;99.90;;;;;;5105356;28;20519;-81
2023/05/14 02:38:26;;;;;;;9.73;8.93;;;13.80;99.90;;;;;;5099523;28;20472;-83
2023/05/14 02:40:53;;;;;;;10.53;8.70;;;13.80;99.90;;;;;;5105841;28;20494;-82
2023/05/14 02:43:19;;;;;;;11.87;9.13;;;13.80;99.90;;;;;;5105802;28;20475;-82
2023/05/14 02:45:48;;;;;;;10.60;8.23;;;13.70;99.90;;;;;;5106380;28;21003;-82
2023/05/14 02:48:14;;;;;;;9.90;9.00;;;13.50;1.00;;;;;;5103518;28;20467;-82
2023/05/14 02:50:41;;;;;;;9.90;8.97;;;13.70;99.90;;;;;;5104513;28;20508;-82
2023/05/14 02:53:08;;;;;;;8.93;8.20;;;13.70;99.90;;;;;;5098312;28;20454;-83
2023/05/14 02:55:36;;;;;;;9.70;8.80;;;13.60;99.90;;;;;;5099855;28;20448;-84
2023/05/14 02:58:03;;;;;;;10.80;8.80;;;13.60;99.90;;;;;;5109964;28;20475;-83
2023/05/14 03:00:30;;;;;;;8.57;7.87;;;13.70;99.90;;;;;;5096425;28;20803;-83
2023/05/14 03:02:58;;;;;;;9.83;8.43;;;13.60;99.90;;;;;;5099835;28;20452;-83
2023/05/14 03:05:25;;;;;;;9.43;8.43;;;13.50;99.90;;;;;;5112825;28;20440;-82
2023/05/14 03:07:52;;;;;;;9.47;8.37;;;13.50;99.90;;;;;;5114281;28;20457;-81
2023/05/14 03:10:19;;;;;;;9.20;8.43;;;13.60;99.90;;;;;;5102877;28;20456;-82
2023/05/14 03:12:46;;;;;;;10.00;9.00;;;13.70;1.00;;;;;;5098672;28;20447;-82
2023/05/14 03:15:13;;;;;;;12.07;9.83;;;13.60;99.90;;;;;;5099200;28;20448;-83
2023/05/14 03:17:39;;;;;;;10.00;9.00;;;13.90;1.00;;;;;;5098338;28;20488;-82
2023/05/14 03:20:09;;;;;;;9.80;8.87;;;13.60;99.90;;;;;;5097866;28;20433;-82
2023/05/14 03:22:36;;;;;;;8.60;7.87;;;13.70;99.90;;;;;;5098922;28;20831;-82
2023/05/14 03:25:04;;;;;;;9.50;8.57;;;13.50;99.90;;;;;;5098460;28;20474;-82
2023/05/14 03:27:32;;;;;;;8.67;7.97;;;13.50;99.90;;;;;;5100050;28;20468;-82
2023/05/14 03:29:59;;;;;;;9.10;8.07;;;13.50;99.90;;;;;;5098525;28;20828;-83
2023/05/14 03:32:26;;;;;;;8.83;8.03;;;13.50;99.90;;;;;;5099032;28;20483;-83
2023/05/14 03:34:52;;;;;;;10.23;8.83;;;13.50;99.90;;;;;;5098480;28;20429;-82
2023/05/14 03:37:21;;;;;;;9.37;8.50;;;13.60;99.90;;;;;;5098381;28;20584;-83
2023/05/14 03:39:47;;;;;;;9.07;8.13;;;13.40;99.90;;;;;;5099110;28;20536;-83
2023/05/14 03:42:14;;;;;;;13.37;9.17;;;13.40;99.90;;;;;;5100941;28;20445;-83
2023/05/14 03:44:41;;;;;;;9.27;8.30;;;13.40;99.90;;;;;;5111097;28;20516;-82
2023/05/14 03:47:08;;;;;;;11.03;9.83;;;13.40;99.90;;;;;;5113639;28;20466;-82
2023/05/14 03:49:35;;;;;;;11.70;8.97;;;13.40;99.90;;;;;;5112962;28;20475;-83
2023/05/14 03:52:01;;;;;;;10.50;8.97;;;13.40;99.90;;;;;;5105602;28;20507;-83
2023/05/14 03:54:30;;;;;;;11.17;8.73;;;13.40;99.90;;;;;;5106438;28;20483;-82
2023/05/14 03:56:56;;;;;;;11.80;10.03;;;13.30;99.90;;;;;;5101355;28;20480;-83
2023/05/14 03:59:23;;;;;;;11.30;9.07;;;13.30;99.90;;;;;;5098482;28;20499;-82
2023/05/14 04:01:50;;;;;;;13.73;8.77;;;13.30;99.90;;;;;;5105585;28;20452;-83
2023/05/14 04:04:17;;;;;;;10.70;8.93;;;13.60;1.00;;;;;;5102899;28;20469;-82
2023/05/14 04:06:44;;;;;;;8.70;7.93;;;13.50;1.00;;;;;;5100977;28;20865;-82
2023/05/14 04:09:10;;;;;;;9.97;8.93;;;13.20;99.90;;;;;;5099253;28;20522;-82
2023/05/14 04:11:39;;;;;;;13.23;9.90;;;13.20;99.90;;;;;;5099154;28;20476;-83
2023/05/14 04:14:06;;;;;;;9.93;8.93;;;13.10;99.90;;;;;;5100588;28;20449;-82
2023/05/14 04:16:32;;;;;;;11.60;8.60;;;13.20;99.90;;;;;;5098952;28;21112;-82
2023/05/14 04:19:02;;;;;;;11.57;10.37;;;13.20;99.90;;;;;;5097805;28;20480;-82
2023/05/14 04:21:29;;;;;;;9.57;8.07;;;13.20;99.90;;;;;;5102232;28;20451;-82
2023/05/14 04:23:56;;;;;;;9.43;8.60;;;13.20;99.90;;;;;;5113563;28;20462;-81
2023/05/14 04:26:23;;;;;;;11.87;8.20;;;13.20;99.90;;;;;;5108840;28;20447;-83
2023/05/14 04:28:51;;;;;;;18.23;9.20;;;13.00;1.00;;;;;;5097890;28;20477;-83
2023/05/14 04:31:18;;;;;;;13.17;9.60;;;13.20;99.90;;;;;;5097439;28;20445;-82
2023/05/14 04:33:45;;;;;;;9.57;8.60;;;13.20;99.90;;;;;;5097607;28;20448;-82
2023/05/14 04:36:12;;;;;;;9.90;8.90;;;13.10;99.90;;;;;;5096520;28;20459;-83
2023/05/14 04:38:38;;;;;;;10.37;9.17;;;12.80;1.00;;;;;;5096981;28;20546;-83
2023/05/14 04:41:06;;;;;;;9.07;8.20;;;13.10;99.90;;;;;;5097843;28;20448;-82
2023/05/14 04:43:32;;;;;;;8.90;8.10;;;13.20;99.90;;;;;;5107033;28;20456;-82
2023/05/14 04:46:01;;;;;;;9.63;8.73;;;13.30;99.90;;;;;;5110502;28;20468;-82
2023/05/14 04:48:28;;;;;;;10.07;8.20;;;13.40;99.90;;;;;;5103579;28;20464;-82
2023/05/14 04:50:54;;;;;;;9.33;8.53;;;13.60;1.00;;;;;;5097474;28;20478;-82
2023/05/14 04:53:21;;;;;;;9.00;8.10;;;13.40;99.90;;;;;;5097937;28;20456;-82
2023/05/14 04:55:48;;;;;;;9.50;8.57;;;13.60;99.90;;;;;;5097392;28;20448;-82
2023/05/14 04:58:15;;;;;;;11.17;9.40;;;13.60;99.90;;;;;;5098325;28;20494;-83
2023/05/14 05:00:42;;;;;;;11.57;8.17;;;13.60;99.90;;;;;;5099537;28;20448;-82
2023/05/14 05:03:10;;;;;;;11.20;10.07;;;13.60;99.90;;;;;;5101578;28;20449;-83
2023/05/14 05:05:37;;;;;;;10.13;9.10;;;13.70;99.90;;;;;;5100056;28;21014;-82
2023/05/14 05:08:04;;;;;;;13.10;10.00;;;13.70;99.90;;;;;;5101482;28;20459;-84
2023/05/14 05:10:31;;;;;;;8.77;7.87;;;13.80;99.90;;;;;;5101820;28;20523;-83
2023/05/14 05:12:58;;;;;;;10.63;7.50;;;13.80;99.90;;;;;;5100962;28;20447;-82
2023/05/14 05:15:25;;;;;;;10.20;8.00;;;13.80;99.90;;;;;;5100587;28;20447;-83
2023/05/14 05:17:51;;;;;;;8.63;7.83;;;13.80;99.90;;;;;;5100922;28;20495;-83
2023/05/14 05:20:20;;;;;;;11.00;9.13;;;13.80;1.00;;;;;;5101069;28;20523;-83
2023/05/14 05:22:47;;;;;;;11.10;8.63;;;13.60;99.90;;;;;;5101861;28;20444;-83
2023/05/14 05:25:14;;;;;;;10.07;9.07;;;13.60;99.90;;;;;;5109682;28;20448;-81
2023/05/14 05:27:40;;;;;;;12.87;9.80;;;13.70;99.90;;;;;;5101477;28;20457;-82
2023/05/14 05:30:08;;;;;;;10.97;9.13;;;13.70;99.90;;;;;;5102253;28;20442;-85
2023/05/14 05:32:35;;;;;;;10.37;9.23;;;13.70;99.90;;;;;;5108772;28;20446;-82
2023/05/14 05:35:02;;;;;;;10.23;9.10;;;13.80;99.90;;;;;;5117960;28;20468;-81
2023/05/14 05:37:32;;;;;;;10.33;8.63;;;13.80;1.00;;;;;;5109091;28;20491;-82
2023/05/14 05:39:58;;;;;;;9.73;8.73;;;13.90;99.90;;;;;;5100111;28;20444;-83
2023/05/14 05:42:25;;;;;;;10.97;9.30;;;14.00;99.90;;;;;;5108244;28;20456;-82
2023/05/14 05:44:52;;;;;;;9.83;8.93;;;14.00;99.90;;;;;;5117336;28;20986;-82
2023/05/14 05:47:19;;;;;;;9.80;8.87;;;14.10;99.90;;;;;;5114204;28;20470;-82
2023/05/14 05:49:46;;;;;;;10.38;8.30;;;14.10;99.90;;;;;;5110959;28;20479;-83
2023/05/14 05:52:13;;;;;;;10.37;9.20;;;14.10;99.90;;;;;;5102512;28;20217;-83
2023/05/14 05:54:41;;;;;;;10.00;9.00;;;14.20;99.90;;;;;;5102913;28;20448;-84
2023/05/14 05:57:08;;;;;;;13.57;9.90;;;14.20;99.90;;;;;;5101129;28;20927;-83
2023/05/14 05:59:35;;;;;;;15.00;9.03;;;14.20;99.90;;;;;;5099341;28;20446;-83
2023/05/14 06:02:02;;;;;;;9.60;8.53;;;14.30;99.90;;;;;;5112610;28;20570;-82
2023/05/14 06:04:28;;;;;;;9.70;8.73;;;14.30;99.90;;;;;;5115869;28;20464;-81
2023/05/14 06:06:55;;;;;;;9.37;8.47;;;14.40;99.90;;;;;;5116557;28;20447;-81
2023/05/14 06:09:22;;;;;;;9.23;8.37;;;14.30;1.00;;;;;;5104833;28;20547;-83
2023/05/14 06:11:50;;;;;;;11.47;9.13;;;14.50;99.90;;;;;;5104220;28;20880;-82
2023/05/14 06:14:17;;;;;;;8.83;7.53;;;14.60;99.90;;;;;;5107375;28;20479;-82
2023/05/14 06:16:44;;;;;;;9.40;8.47;;;14.50;99.90;;;;;;5105873;28;20459;-83
2023/05/14 06:19:11;;;;;;;9.17;8.27;;;14.50;99.90;;;;;;5102138;28;20930;-83
2023/05/14 06:21:37;;;;;;;9.57;8.67;;;14.50;99.90;;;;;;5103261;28;20453;-82
2023/05/14 06:24:05;;;;;;;9.80;8.80;;;14.60;99.90;;;;;;5109742;28;20479;-83
2023/05/14 06:26:31;;;;;;;12.13;9.27;;;14.10;1.00;;;;;;5103627;28;20819;-82
2023/05/14 06:29:00;;;;;;;8.53;7.60;;;14.60;99.90;;;;;;5110558;28;20504;-81
2023/05/14 06:31:27;;;;;;;9.20;8.30;;;14.50;99.90;;;;;;5111212;28;20455;-82
2023/05/14 06:33:53;;;;;;;9.23;8.33;;;14.60;99.90;;;;;;5102229;28;20452;-82
2023/05/14 06:36:20;;;;;;;10.17;9.23;;;14.50;1.00;;;;;;5101164;28;20444;-83
2023/05/14 06:38:47;;;;;;;13.10;7.90;;;14.70;99.90;;;;;;5101776;28;20559;-81
2023/05/14 06:41:14;;;;;;;10.30;8.13;;;14.70;99.90;;;;;;5101589;28;20480;-82
2023/05/14 06:43:41;;;;;;;14.37;9.57;;;14.80;99.90;;;;;;5100290;28;20451;-82
2023/05/14 06:46:09;;;;;;;14.60;8.23;;;14.90;99.90;;;;;;5107062;28;20445;-83
2023/05/14 06:48:36;;;;;;;11.17;8.40;;;15.00;99.90;;;;;;5102688;28;20466;-83
2023/05/14 06:51:03;;;;;;;16.90;10.00;;;15.10;99.90;;;;;;5099457;28;20819;-83
2023/05/14 06:53:30;;;;;;;11.53;8.70;;;15.20;99.90;;;;;;5102179;28;20451;-83
2023/05/14 06:55:56;;;;;;;9.83;8.00;;;15.20;99.90;;;;;;5103443;28;20534;-83
2023/05/14 06:58:23;;;;;;;12.10;7.60;;;15.40;99.90;;;;;;5110036;28;20504;-82
2023/05/14 07:00:50;;;;;;;7.63;6.93;;;15.70;1.00;;;;;;5111255;28;20452;-82
2023/05/14 07:03:18;;;;;;;6.97;6.47;;;15.50;99.90;;;;;;5100908;28;20532;-82
2023/05/14 07:05:45;;;;;;;8.57;7.53;;;15.50;99.90;;;;;;5099677;28;20942;-83
2023/05/14 07:08:12;;;;;;;11.03;7.50;;;15.60;99.90;;;;;;5104250;28;20464;-82
2023/05/14 07:10:39;;;;;;;10.07;7.73;;;16.00;1.00;;;;;;5105721;28;20439;-81
2023/05/14 07:13:06;;;;;;;8.20;7.40;;;15.70;99.90;;;;;;5102088;28;20450;-84
2023/05/14 07:15:33;;;;;;;8.53;7.30;;;15.80;99.90;;;;;;5100499;28;20795;-83
2023/05/14 07:17:59;;;;;;;7.37;6.67;;;15.80;99.90;;;;;;5099469;28;20484;-83
2023/05/14 07:20:28;;;;;;;7.20;6.57;;;16.00;99.90;;;;;;5099650;28;20534;-82
2023/05/14 07:22:55;;;;;;;10.37;7.23;;;16.20;99.90;;;;;;5098236;28;20494;-83
2023/05/14 07:25:21;;;;;;;10.10;7.50;;;16.20;99.90;;;;;;5099033;28;20444;-83
2023/05/14 07:27:49;;;;;;;7.70;7.00;;;16.30;99.90;;;;;;5099303;28;20466;-83
2023/05/14 07:30:19;;;;;;;6.87;6.23;;;16.50;99.90;;;;;;5101617;28;21001;-83
2023/05/14 07:32:46;;;;;;;6.50;6.00;;;16.50;99.90;;;;;;5107010;28;20448;-82
2023/05/14 07:35:13;;;;;;;13.37;7.73;;;16.60;1.00;;;;;;5098907;28;20454;-82
2023/05/14 07:37:41;;;;;;;6.60;6.00;;;16.60;99.90;;;;;;5098743;28;20537;-82
2023/05/14 07:40:09;;;;;;;13.73;10.40;;;16.80;99.90;;;;;;5099639;28;20513;-82
2023/05/14 07:42:36;;;;;;;6.70;5.67;;;17.10;99.90;;;;;;5102266;28;20448;-82
2023/05/14 07:45:03;;;;;;;9.27;5.57;;;17.30;99.90;;;;;;5113290;28;20440;-82
2023/05/14 07:47:32;;;;;;;5.57;5.17;;;17.30;1.00;;;;;;5111422;28;20433;-83
2023/05/14 07:49:59;;;;;;;6.97;6.27;;;17.40;99.90;;;;;;5110454;28;20440;-83
2023/05/14 07:52:26;;;;;;;5.93;5.43;;;17.60;99.90;;;;;;5107118;28;20440;-82
2023/05/14 07:54:54;;;;;;;7.00;6.40;;;17.60;99.90;;;;;;5110349;28;20436;-82
2023/05/14 07:57:21;;;;;;;6.37;5.60;;;17.20;1.00;;;;;;5107583;28;20555;-82
2023/05/14 07:59:48;;;;;;;5.57;5.10;;;17.60;99.90;;;;;;5104981;28;20827;-81
2023/05/14 08:02:16;;;;;;;8.50;5.80;;;17.80;99.90;;;;;;5102704;28;20454;-83
2023/05/14 08:04:43;;;;;;;7.60;5.50;;;17.90;99.90;;;;;;5102475;28;20887;-82
2023/05/14 08:07:10;;;;;;;7.57;6.20;;;18.00;99.90;;;;;;5103352;28;20472;-83
2023/05/14 08:09:37;;;;;;;6.18;5.40;;;18.10;99.90;;;;;;5100744;28;20950;-82
2023/05/14 08:12:06;;;;;;;10.43;5.80;;;18.20;99.90;;;;;;5104687;28;20302;-83
2023/05/14 08:14:33;;;;;;;5.90;5.47;;;18.30;99.90;;;;;;5103299;28;20444;-83
2023/05/14 08:17:00;;;;;;;7.35;5.20;;;18.30;99.90;;;;;;5099163;28;20497;-82
2023/05/14 08:19:27;;;;;;;9.83;5.83;;;18.30;99.90;;;;;;5100036;28;20576;-83
2023/05/14 08:21:54;;;;;;;10.27;6.90;;;18.50;99.90;;;;;;5100279;28;20445;-83
2023/05/14 08:24:21;;;;;;;8.20;6.57;;;18.60;99.90;;;;;;5100134;28;20472;-83
2023/05/14 08:26:47;;;;;;;6.97;5.10;;;18.80;99.90;;;;;;5099630;28;20445;-83
2023/05/14 08:29:15;;;;;;;6.47;5.47;;;18.80;99.90;;;;;;5099478;28;20474;-83
2023/05/14 08:31:43;;;;;;;8.13;6.80;;;;;;;;;;5099896;28;20480;-83
2023/05/14 08:34:09;;;;;;;6.73;5.50;;;18.80;99.90;;;;;;5104817;28;20449;-82
2023/05/14 08:36:36;;;;;;;11.33;7.90;;;18.80;99.90;;;;;;5102157;28;20539;-83
2023/05/14 08:39:03;;;;;;;11.63;7.40;;;18.80;1.00;;;;;;5103514;28;20490;-83
2023/05/14 08:41:31;;;;;;;7.70;6.00;;;19.10;99.90;;;;;;5103527;28;20445;-83
2023/05/14 08:44:07;;;;;;;6.13;5.63;;;19.20;99.90;;;;;;5104890;28;20512;-83
2023/05/14 08:46:37;;;;;;;7.80;5.90;;;19.10;99.90;;;;;;5112929;28;20441;-83
2023/05/14 08:49:13;;;;;;;8.80;5.27;;;19.30;99.90;;;;;;5106322;28;20901;-83
2023/05/14 08:51:40;;;;;;;6.47;5.83;;;19.00;99.90;;;;;;5104435;28;20459;-83
2023/05/14 08:54:07;;;;;;;7.80;6.43;;;19.20;99.90;;;;;;5103642;28;20455;-82
2023/05/14 08:56:34;;;;;;;9.20;7.20;;;19.10;99.90;;;;;;5104439;28;20483;-82
2023/05/14 08:59:01;;;;;;;6.63;6.03;;;19.30;99.90;;;;;;5108704;28;20523;-82
2023/05/14 09:01:29;;;;;;;6.00;5.50;;;19.30;99.90;;;;;;5116512;28;20444;-82
2023/05/14 09:04:00;;;;;;;6.40;5.80;;;19.30;99.90;;;;;;5117993;28;20424;-81
2023/05/14 09:06:29;;;;;;;9.00;4.83;;;19.50;99.90;;;;;;5108152;28;20462;-82
2023/05/14 09:08:56;;;;;;;5.23;4.60;;;19.70;99.90;;;;;;5104196;28;20484;-82
2023/05/14 09:11:23;;;;;;;9.43;5.40;;;19.80;99.90;;;;;;5106461;28;20483;-82
2023/05/14 09:13:50;;;;;;;4.77;4.37;;;19.70;99.90;;;;;;5103881;28;20565;-82
2023/05/14 09:16:20;;;;;;;4.57;4.27;;;19.60;99.90;;;;;;5105678;28;20531;-82
2023/05/14 09:18:47;;;;;;;22.17;17.57;;;19.60;99.90;;;;;;5117488;22;20496;-79
2023/05/14 09:21:15;;;;;;;4.60;4.23;;;19.60;99.90;;;;;;5103059;28;20441;-80
2023/05/14 09:23:43;;;;;;;6.60;5.67;;;19.60;99.90;;;;;;5102654;28;20535;-80
2023/05/14 09:26:10;;;;;;;6.50;5.80;;;19.70;99.90;;;;;;5101952;28;20448;-80
2023/05/14 09:28:40;;;;;;;8.00;6.10;;;19.80;99.90;;;;;;5099108;28;20887;-79
2023/05/14 09:31:09;;;;;;;6.83;4.20;;;19.90;99.90;;;;;;5099395;28;20435;-80
2023/05/14 09:33:36;;;;;;;8.13;4.67;;;20.00;99.90;;;;;;5099867;28;20494;-80
2023/05/14 09:36:03;;;;;;;5.63;5.07;;;20.10;99.90;;;;;;5104784;28;20534;-79
2023/05/14 09:38:31;;;;;;;5.13;4.60;;;20.20;99.90;;;;;;5116667;28;20472;-78
2023/05/14 09:40:58;;;;;;;4.60;4.20;;;20.10;99.90;;;;;;5106313;28;20474;-80
2023/05/14 09:43:25;;;;;;;12.50;11.20;;;20.20;99.90;;;;;;5100142;28;20960;-80
2023/05/14 09:45:52;;;;;;;8.33;5.90;;;20.30;99.90;;;;;;5100072;28;20452;-79
2023/05/14 09:48:21;;;;;;;5.40;5.00;;;20.40;99.90;;;;;;5101245;28;20496;-79
2023/05/14 09:50:48;;;;;;;7.97;5.03;;;20.40;99.90;;;;;;5099366;28;20535;-79
2023/05/14 09:53:16;;;;;;;11.20;8.43;;;20.40;99.90;;;;;;5108879;28;20508;-78
2023/05/14 09:55:45;;;;;;;6.67;6.17;;;20.40;99.90;;;;;;5110657;28;20448;-77
2023/05/14 09:58:13;;;;;;;8.40;7.57;;;20.40;99.90;;;;;;5110116;28;20567;-78
2023/05/14 10:00:43;;;;;;;12.40;5.43;;;20.20;99.90;;;;;;5112730;28;20444;-78
2023/05/14 10:03:14;;;;;;;11.10;4.53;;;20.20;99.90;;;;;;5104355;28;20452;-78
2023/05/14 10:05:42;;;;;;;4.80;4.50;;;20.20;99.90;;;;;;5101138;28;20464;-79
2023/05/14 10:08:13;;;;;;;5.00;4.37;;;20.20;99.90;;;;;;5103626;28;20494;-78
2023/05/14 10:10:40;;;;;;;4.77;4.27;;;20.00;99.90;;;;;;5101744;28;20409;-79
2023/05/14 10:13:14;;;;;;;5.17;4.67;;;19.80;99.90;;;;;;5101385;28;20448;-79
2023/05/14 10:15:47;;;;;;;11.17;7.77;;;19.80;99.90;;;;;;5101441;28;20440;-79
2023/05/14 10:18:22;;;;;;;5.13;4.50;;;19.70;99.90;;;;;;5101767;28;20485;-80
2023/05/14 10:21:03;;;;;;;6.30;4.47;;;19.50;99.90;;;;;;5106816;28;20429;-80
2023/05/14 10:23:30;;;;;;;4.57;4.17;;;19.50;99.90;;;;;;5102028;28;20992;-79
2023/05/14 10:25:58;;;;;;;13.20;9.60;;;19.40;99.90;;;;;;5101889;28;20456;-80
2023/05/14 10:28:27;;;;;;;5.67;5.17;;;19.30;99.90;;;;;;5102076;28;20524;-80
2023/05/14 10:30:54;;;;;;;6.50;5.90;;;19.30;99.90;;;;;;5100288;28;20454;-79
2023/05/14 10:33:21;;;;;;;6.72;4.78;;;19.40;99.90;;;;;;5096888;28;20476;-79
2023/05/14 10:35:56;;;;;;;7.17;6.57;;;19.40;99.90;;;;;;5098784;28;20265;-78
2023/05/14 10:38:26;;;;;;;9.60;5.50;;;19.40;99.90;;;;;;5098124;28;20567;-78
2023/05/14 10:40:56;;;;;;;6.83;5.23;;;19.50;99.90;;;;;;5097330;28;20932;-78
2023/05/14 10:43:27;;;;;;;5.73;5.03;;;19.50;99.90;;;;;;5097233;28;20436;-79
2023/05/14 10:45:55;;;;;;;9.10;5.40;;;19.50;99.90;;;;;;5098307;28;20802;-79
2023/05/14 10:48:22;;;;;;;5.20;4.80;;;19.40;99.90;;;;;;5099714;28;20832;-80
2023/05/14 10:50:50;;;;;;;7.97;6.87;;;19.30;99.90;;;;;;5098423;28;20531;-79
2023/05/14 10:53:17;;;;;;;7.67;6.87;;;19.00;99.90;;;;;;5096818;28;20822;-80
2023/05/14 10:55:45;;;;;;;8.10;7.30;;;19.50;99.90;;;;;;5098340;28;20455;-80
2023/05/14 10:58:12;;;;;;;6.87;5.47;;;19.60;99.90;;;;;;5098584;28;20468;-79
2023/05/14 11:00:41;;;;;;;8.10;6.17;;;19.70;99.90;;;;;;5101682;28;20855;-81
2023/05/14 11:03:08;;;;;;;6.27;5.60;;;19.70;99.90;;;;;;5100053;28;20457;-80
2023/05/14 11:05:37;;;;;;;7.10;5.30;;;19.50;99.90;;;;;;5100310;28;20444;-79
2023/05/14 11:08:07;;;;;;;6.70;6.13;;;19.50;99.90;;;;;;5100379;28;20471;-79
2023/05/14 11:10:35;;;;;;;6.13;5.63;;;19.50;99.90;;;;;;5100661;28;20448;-79
2023/05/14 11:13:02;;;;;;;4.40;4.00;;;19.50;99.90;;;;;;5105411;28;20512;-79
2023/05/14 11:15:29;;;;;;;7.13;4.93;;;19.40;99.90;;;;;;5108944;28;20508;-79
2023/05/14 11:17:57;;;;;;;13.70;5.50;;;19.30;99.90;;;;;;5103181;28;20562;-79
2023/05/14 11:20:24;;;;;;;8.13;6.60;;;19.20;99.90;;;;;;5105114;28;20479;-80
2023/05/14 11:22:51;;;;;;;5.80;4.97;;;19.10;99.90;;;;;;5103090;28;21039;-80
2023/05/14 11:25:18;;;;;;;6.60;5.80;;;19.10;99.90;;;;;;5099649;28;20440;-81
2023/05/14 11:27:46;;;;;;;10.63;6.10;;;19.20;99.90;;;;;;5098871;28;20986;-80
2023/05/14 11:30:14;;;;;;;6.47;5.97;;;19.10;99.90;;;;;;5098416;28;20455;-80
2023/05/14 11:32:43;;;;;;;10.40;5.47;;;19.10;99.90;;;;;;5101932;28;20449;-79
2023/05/14 11:35:11;;;;;;;8.10;7.20;;;19.20;99.90;;;;;;5100715;28;20811;-79
2023/05/14 11:37:38;;;;;;;7.73;6.53;;;19.10;99.90;;;;;;5098378;28;20448;-80
2023/05/14 11:40:09;;;;;;;9.37;7.93;;;19.40;99.90;;;;;;5098300;28;20490;-80
2023/05/14 11:42:37;;;;;;;6.37;5.77;;;19.50;99.90;;;;;;5099558;28;20437;-80
2023/05/14 11:45:05;;;;;;;5.47;4.93;;;19.50;99.90;;;;;;5100171;28;20484;-80
2023/05/14 11:47:32;;;;;;;7.03;5.63;;;;;;;;;;5103036;28;20937;-80
2023/05/14 11:50:00;;;;;;;7.00;5.30;;;19.30;99.90;;;;;;5100286;28;20441;-80
2023/05/14 11:52:28;;;;;;;6.87;6.27;;;19.20;99.90;;;;;;5099492;28;20449;-80
2023/05/14 11:54:55;;;;;;;7.73;7.03;;;19.20;99.90;;;;;;5098427;28;20539;-81
2023/05/14 11:57:22;;;;;;;12.10;7.23;;;19.20;99.90;;;;;;5098860;28;20455;-79
2023/05/14 11:59:56;;;;;;;13.57;10.00;;;19.20;99.90;;;;;;5099409;28;20661;-81
2023/05/14 12:02:26;;;;;;;7.90;6.50;;;19.20;99.90;;;;;;5099241;28;20827;-79
2023/05/14 12:04:53;;;;;;;14.67;9.20;;;19.30;99.90;;;;;;5099640;28;20535;-80
2023/05/14 12:07:21;;;;;;;8.07;7.03;;;19.40;99.90;;;;;;5099050;28;20444;-81
2023/05/14 12:09:49;;;;;;;12.67;7.87;;;19.50;99.90;;;;;;5099555;28;20460;-80
2023/05/14 12:12:19;;;;;;;12.73;9.03;;;19.60;99.90;;;;;;5098626;28;20471;-80
2023/05/14 12:14:46;;;;;;;10.30;8.40;;;19.70;99.90;;;;;;5099404;28;20487;-81
2023/05/14 12:17:15;;;;;;;14.83;10.00;;;19.80;99.90;;;;;;5100107;28;20875;-80
2023/05/14 12:19:43;;;;;;;9.03;7.23;;;19.90;99.90;;;;;;5102425;28;20667;-79
2023/05/14 12:22:11;;;;;;;10.93;7.77;;;20.00;99.90;;;;;;5099336;28;20497;-80
2023/05/14 12:24:39;;;;;;;8.63;7.40;;;20.00;99.90;;;;;;5098559;28;20455;-79
2023/05/14 12:27:09;;;;;;;7.10;6.40;;;20.10;99.90;;;;;;5099389;28;20448;-79
2023/05/14 12:29:37;;;;;;;5.70;4.97;;;20.10;99.90;;;;;;5100850;28;20472;-79
2023/05/14 12:32:09;;;;;;;5.40;4.90;;;20.10;99.90;;;;;;5103617;28;20444;-80
2023/05/14 12:34:36;;;;;;;5.97;5.40;;;20.20;99.90;;;;;;5100079;28;20441;-79
2023/05/14 12:37:03;;;;;;;4.97;4.47;;;20.20;99.90;;;;;;5097122;28;20441;-79
2023/05/14 12:39:32;;;;;;;6.17;5.60;;;20.10;99.90;;;;;;5099251;28;20480;-79
2023/05/14 12:41:59;;;;;;;8.87;5.27;;;20.00;99.90;;;;;;5114723;28;20519;-78
2023/05/14 12:44:27;;;;;;;8.40;7.60;;;20.00;99.90;;;;;;5112177;28;20443;-79